createdAt,value
2019-03-24T00:01:40.782Z,30.57
2019-03-24T00:04:03.897Z,31.73
2019-03-24T00:06:30.961Z,31.07
2019-03-24T00:08:58.010Z,30.13
2019-03-24T00:11:25.401Z,32.57
2019-03-24T00:13:54.625Z,29.50
2019-03-24T00:16:21.720Z,30.10
2019-03-24T00:18:48.769Z,29.93
2019-03-24T00:21:15.951Z,30.50
2019-03-24T00:23:43.030Z,30.03
2019-03-24T00:26:10.073Z,30.47
2019-03-24T00:28:37.107Z,31.60
2019-03-24T00:31:11.231Z,31.57
2019-03-24T00:33:38.303Z,30.33
2019-03-24T00:36:07.051Z,31.30
2019-03-24T00:38:34.136Z,29.27
2019-03-24T00:41:06.059Z,31.60
2019-03-24T00:43:33.364Z,31.60
2019-03-24T00:46:00.669Z,29.47
2019-03-24T00:48:27.809Z,30.27
2019-03-24T00:50:55.053Z,32.80
2019-03-24T00:53:22.256Z,32.63
2019-03-24T00:55:49.323Z,31.17
2019-03-24T00:58:17.411Z,30.87
2019-03-24T01:00:46.247Z,32.87
2019-03-24T01:03:13.681Z,33.20
2019-03-24T01:05:40.809Z,34.30
2019-03-24T01:08:07.932Z,34.30
2019-03-24T01:10:35.040Z,32.90
2019-03-24T01:13:02.139Z,33.63
2019-03-24T01:15:29.187Z,33.67
2019-03-24T01:17:57.426Z,32.37
2019-03-24T01:20:24.612Z,34.23
2019-03-24T01:22:51.626Z,34.40
2019-03-24T01:25:18.871Z,33.70
2019-03-24T01:27:46.025Z,34.67
2019-03-24T01:30:13.593Z,33.17
2019-03-24T01:32:40.703Z,34.87
2019-03-24T01:35:08.156Z,34.33
2019-03-24T01:37:35.471Z,32.83
2019-03-24T01:40:02.780Z,34.03
2019-03-24T01:42:36.272Z,36.00
2019-03-24T01:45:03.935Z,34.47
2019-03-24T01:47:31.030Z,34.70
2019-03-24T01:49:58.074Z,37.30
2019-03-24T01:52:26.690Z,36.17
2019-03-24T01:54:55.826Z,37.07
2019-03-24T01:57:22.863Z,33.33
2019-03-24T01:59:52.803Z,36.50
2019-03-24T02:02:22.012Z,38.40
2019-03-24T02:04:52.026Z,37.13
2019-03-24T02:07:21.328Z,38.87
2019-03-24T02:09:51.511Z,38.33
2019-03-24T02:15:08.570Z,38.20
2019-03-24T02:17:35.701Z,38.23
2019-03-24T02:20:10.729Z,39.33
2019-03-24T02:22:38.340Z,38.07
2019-03-24T02:25:06.209Z,40.23
2019-03-24T02:27:33.333Z,40.63
2019-03-24T02:30:04.375Z,38.80
2019-03-24T02:32:31.411Z,40.10
2019-03-24T02:34:58.415Z,41.37
2019-03-24T02:37:25.477Z,39.93
2019-03-24T02:39:52.478Z,38.33
2019-03-24T02:42:22.036Z,42.53
2019-03-24T02:44:49.130Z,41.53
2019-03-24T02:47:16.540Z,39.80
2019-03-24T02:49:43.895Z,41.03
2019-03-24T02:52:10.973Z,42.57
2019-03-24T02:54:38.059Z,41.43
2019-03-24T02:57:08.166Z,40.17
2019-03-24T02:59:35.170Z,40.90
2019-03-24T03:02:03.038Z,41.37
2019-03-24T03:04:30.487Z,42.47
2019-03-24T03:06:57.527Z,41.47
2019-03-24T03:09:24.748Z,41.10
2019-03-24T03:11:52.728Z,41.03
2019-03-24T03:14:20.541Z,42.70
2019-03-24T03:16:47.586Z,40.10
2019-03-24T03:19:17.616Z,41.03
2019-03-24T03:21:44.696Z,39.30
2019-03-24T03:24:11.885Z,38.90
2019-03-24T03:26:39.059Z,39.50
2019-03-24T03:29:06.343Z,40.53
2019-03-24T03:31:33.462Z,40.03
2019-03-24T03:34:00.879Z,37.17
2019-03-24T03:36:28.370Z,37.30
2019-03-24T03:38:57.538Z,32.80
2019-03-24T03:41:27.640Z,32.90
2019-03-24T03:43:57.125Z,31.83
2019-03-24T03:46:24.184Z,29.17
2019-03-24T03:48:59.066Z,27.80
2019-03-24T03:51:26.113Z,25.37
2019-03-24T03:53:53.166Z,25.67
2019-03-24T03:56:47.230Z,21.57
2019-03-24T03:59:14.337Z,18.00
2019-03-24T04:01:45.868Z,16.83
2019-03-24T04:04:12.904Z,15.57
2019-03-24T04:06:40.059Z,15.87
2019-03-24T04:09:09.822Z,14.13
2019-03-24T04:11:36.927Z,15.40
2019-03-24T04:14:04.058Z,15.67
2019-03-24T04:16:31.264Z,15.20
2019-03-24T04:18:58.356Z,12.63
2019-03-24T04:21:25.888Z,12.37
2019-03-24T04:23:53.067Z,11.47
2019-03-24T04:26:22.904Z,11.97
2019-03-24T04:28:51.238Z,13.20
2019-03-24T04:31:18.370Z,12.80
2019-03-24T04:33:45.471Z,12.70
2019-03-24T04:36:14.676Z,11.63
2019-03-24T04:38:42.042Z,12.00
2019-03-24T04:41:11.898Z,12.07
2019-03-24T04:43:41.051Z,11.60
2019-03-24T04:46:08.095Z,12.87
2019-03-24T04:48:35.114Z,13.17
2019-03-24T04:51:02.541Z,12.27
2019-03-24T04:53:29.549Z,11.50
2019-03-24T04:55:56.631Z,11.63
2019-03-24T04:58:23.791Z,12.17
2019-03-24T05:00:53.029Z,11.20
2019-03-24T05:03:20.092Z,12.43
2019-03-24T05:05:50.184Z,12.17
2019-03-24T05:08:17.219Z,11.93
2019-03-24T05:10:44.401Z,11.97
2019-03-24T05:13:11.584Z,12.30
2019-03-24T05:15:38.866Z,11.57
2019-03-24T05:18:06.356Z,11.63
2019-03-24T05:20:36.187Z,12.10
2019-03-24T05:23:03.597Z,11.90
2019-03-24T05:25:34.492Z,13.00
2019-03-24T05:28:08.552Z,12.90
2019-03-24T05:30:35.693Z,13.23
2019-03-24T05:33:02.745Z,12.33
2019-03-24T05:35:32.433Z,14.97
2019-03-24T05:37:59.505Z,12.50
2019-03-24T05:40:26.512Z,12.77
2019-03-24T05:42:54.163Z,13.43
2019-03-24T05:45:25.440Z,12.87
2019-03-24T05:47:59.815Z,14.23
2019-03-24T05:50:26.896Z,13.13
2019-03-24T05:52:54.059Z,15.43
2019-03-24T05:55:21.303Z,14.70
2019-03-24T05:57:48.644Z,14.37
2019-03-24T06:00:16.134Z,13.97
2019-03-24T06:02:44.495Z,14.70
2019-03-24T06:05:11.833Z,15.87
2019-03-24T06:07:38.961Z,14.53
2019-03-24T06:10:06.790Z,14.93
2019-03-24T06:12:34.217Z,14.30
2019-03-24T06:15:01.358Z,13.97
2019-03-24T06:17:28.405Z,13.27
2019-03-24T06:19:55.520Z,13.90
2019-03-24T06:22:23.189Z,13.37
2019-03-24T06:24:50.801Z,14.57
2019-03-24T06:27:17.943Z,14.30
2019-03-24T06:29:47.011Z,13.27
2019-03-24T06:32:14.104Z,15.07
2019-03-24T06:34:41.246Z,14.07
2019-03-24T06:37:08.393Z,14.40
2019-03-24T06:39:35.909Z,14.93
2019-03-24T06:42:03.071Z,14.30
2019-03-24T06:44:30.184Z,15.33
2019-03-24T06:46:57.312Z,15.73
2019-03-24T06:49:24.650Z,16.57
2019-03-24T06:51:53.175Z,16.43
2019-03-24T06:54:20.271Z,15.40
2019-03-24T06:56:49.225Z,15.07
2019-03-24T06:59:16.790Z,15.27
2019-03-24T07:01:44.038Z,17.33
2019-03-24T07:04:11.131Z,18.77
2019-03-24T07:06:40.345Z,18.57
2019-03-24T07:09:07.556Z,19.90
2019-03-24T07:11:35.086Z,21.23
2019-03-24T07:14:02.384Z,20.23
2019-03-24T07:16:29.806Z,23.00
2019-03-24T07:18:56.894Z,21.53
2019-03-24T07:21:24.321Z,21.60
2019-03-24T07:23:51.508Z,20.70
2019-03-24T07:26:19.325Z,21.87
2019-03-24T07:28:46.403Z,21.17
2019-03-24T07:31:13.616Z,21.77
2019-03-24T07:33:40.991Z,21.53
2019-03-24T07:36:08.098Z,23.30
2019-03-24T07:38:35.143Z,25.50
2019-03-24T07:41:03.487Z,23.50
2019-03-24T07:43:31.284Z,22.77
2019-03-24T07:45:58.613Z,24.37
2019-03-24T07:48:26.023Z,22.47
2019-03-24T07:50:53.201Z,26.07
2019-03-24T07:53:20.293Z,24.80
2019-03-24T07:55:48.212Z,23.97
2019-03-24T07:58:15.399Z,22.20
2019-03-24T08:00:43.361Z,23.43
2019-03-24T08:03:10.594Z,23.13
2019-03-24T08:05:37.744Z,25.33
2019-03-24T08:08:10.796Z,24.17
2019-03-24T08:10:38.248Z,25.83
2019-03-24T08:13:05.646Z,24.70
2019-03-24T08:15:32.959Z,26.50
2019-03-24T08:18:00.056Z,23.90
2019-03-24T08:20:27.277Z,24.77
2019-03-24T08:22:54.460Z,25.27
2019-03-24T08:25:21.936Z,25.03
2019-03-24T08:27:49.211Z,26.60
2019-03-24T08:30:30.066Z,26.80
2019-03-24T08:32:57.210Z,23.13
2019-03-24T08:35:24.784Z,25.33
2019-03-24T08:37:54.447Z,25.10
2019-03-24T08:40:22.498Z,28.07
2019-03-24T08:42:49.995Z,25.50
2019-03-24T08:45:25.686Z,26.07
2019-03-24T08:47:59.871Z,25.20
2019-03-24T08:50:30.981Z,27.60
2019-03-24T08:52:58.168Z,27.13
2019-03-24T08:55:25.316Z,24.57
2019-03-24T08:57:53.110Z,26.43
2019-03-24T09:00:30.108Z,25.70
2019-03-24T09:02:49.347Z,28.13
2019-03-24T09:05:18.531Z,27.20
2019-03-24T09:07:47.092Z,26.53
2019-03-24T09:10:21.325Z,29.30
2019-03-24T09:12:48.469Z,26.17
2019-03-24T09:15:16.039Z,26.77
2019-03-24T09:17:43.239Z,26.73
2019-03-24T09:20:10.751Z,24.73
2019-03-24T09:22:40.932Z,24.83
2019-03-24T09:25:11.487Z,25.83
2019-03-24T09:27:38.732Z,26.47
2019-03-24T09:30:11.895Z,29.80
2019-03-24T09:32:39.703Z,31.00
2019-03-24T09:35:07.113Z,27.47
2019-03-24T09:37:39.145Z,28.10
2019-03-24T09:40:08.723Z,27.53
2019-03-24T09:42:45.184Z,28.47
2019-03-24T09:45:15.770Z,28.60
2019-03-24T09:47:45.505Z,28.20
2019-03-24T09:50:15.346Z,28.77
2019-03-24T09:52:42.513Z,30.47
2019-03-24T09:55:09.901Z,28.83
2019-03-24T09:57:39.602Z,30.77
2019-03-24T10:00:08.375Z,30.27
2019-03-24T10:02:36.525Z,29.10
2019-03-24T10:05:04.429Z,32.90
2019-03-24T10:07:36.853Z,30.67
2019-03-24T10:10:07.067Z,29.50
2019-03-24T10:12:36.014Z,29.10
2019-03-24T10:15:04.284Z,30.00
2019-03-24T10:17:33.126Z,26.10
2019-03-24T10:20:00.451Z,30.40
2019-03-24T10:22:28.202Z,29.63
2019-03-24T10:24:55.505Z,29.07
2019-03-24T10:27:25.316Z,29.30
2019-03-24T10:29:53.140Z,27.50
2019-03-24T10:32:21.086Z,27.47
2019-03-24T10:34:49.663Z,31.90
2019-03-24T10:37:18.194Z,32.40
2019-03-24T10:39:46.770Z,30.77
2019-03-24T10:42:14.417Z,31.27
2019-03-24T10:44:43.854Z,28.33
2019-03-24T10:47:11.551Z,28.33
2019-03-24T10:49:38.755Z,29.93
2019-03-24T10:52:06.977Z,29.00
2019-03-24T10:54:34.316Z,29.17
2019-03-24T10:57:05.428Z,27.83
2019-03-24T10:59:37.562Z,28.20
2019-03-24T11:02:05.269Z,29.10
2019-03-24T11:04:34.082Z,26.27
2019-03-24T11:07:02.674Z,25.80
2019-03-24T11:09:29.784Z,27.40
2019-03-24T11:11:57.104Z,26.50
2019-03-24T11:14:24.280Z,28.20
2019-03-24T11:16:51.609Z,28.23
2019-03-24T11:19:19.143Z,27.70
2019-03-24T11:21:46.546Z,28.10
2019-03-24T11:24:15.983Z,27.03
2019-03-24T11:26:45.313Z,28.90
2019-03-24T11:29:12.947Z,27.30
2019-03-24T11:31:41.263Z,26.57
2019-03-24T11:34:09.398Z,27.53
2019-03-24T11:36:37.535Z,28.93
2019-03-24T11:39:06.699Z,29.70
2019-03-24T11:41:35.850Z,27.57
2019-03-24T11:44:03.667Z,24.83
2019-03-24T11:46:33.288Z,26.37
2019-03-24T11:49:00.954Z,27.80
2019-03-24T11:51:28.229Z,27.20
2019-03-24T11:53:58.284Z,27.23
2019-03-24T11:56:25.505Z,26.60
2019-03-24T11:58:53.009Z,26.67
2019-03-24T12:01:21.335Z,27.13
2019-03-24T12:03:50.299Z,26.17
2019-03-24T12:06:17.586Z,25.67
2019-03-24T12:08:46.762Z,23.27
2019-03-24T12:11:13.905Z,24.40
2019-03-24T12:13:41.290Z,23.20
2019-03-24T12:16:08.862Z,23.57
2019-03-24T12:18:38.219Z,24.13
2019-03-24T12:21:06.113Z,25.07
2019-03-24T12:23:33.530Z,26.37
2019-03-24T12:26:00.586Z,25.20
2019-03-24T12:28:30.269Z,26.10
2019-03-24T12:30:57.780Z,25.23
2019-03-24T12:33:25.876Z,26.23
2019-03-24T12:35:53.186Z,24.10
2019-03-24T12:38:21.064Z,25.83
2019-03-24T12:40:48.886Z,25.30
2019-03-24T12:43:19.596Z,23.97
2019-03-24T12:45:45.410Z,23.40
2019-03-24T12:48:13.310Z,23.47
2019-03-24T12:50:40.683Z,24.00
2019-03-24T12:53:08.297Z,26.03
2019-03-24T12:55:35.993Z,23.93
2019-03-24T12:58:03.359Z,24.27
2019-03-24T13:00:40.127Z,24.33
2019-03-24T13:03:07.572Z,23.70
2019-03-24T13:05:34.891Z,24.90
2019-03-24T13:08:15.956Z,25.23
2019-03-24T13:10:44.305Z,23.80
2019-03-24T13:13:11.744Z,24.50
2019-03-24T13:15:39.177Z,24.37
2019-03-24T13:18:07.136Z,23.80
2019-03-24T13:20:38.398Z,25.97
2019-03-24T13:23:04.100Z,25.80
2019-03-24T13:25:31.404Z,24.20
2019-03-24T13:27:58.624Z,19.77
2019-03-24T13:30:25.765Z,16.77
2019-03-24T13:32:53.109Z,17.97
2019-03-24T13:35:22.654Z,16.17
2019-03-24T13:37:50.472Z,17.00
2019-03-24T13:40:19.879Z,15.00
2019-03-24T13:42:47.549Z,16.23
2019-03-24T13:45:14.820Z,21.70
2019-03-24T13:47:44.796Z,19.87
2019-03-24T13:50:12.314Z,20.47
2019-03-24T13:52:40.066Z,18.67
2019-03-24T13:55:07.939Z,17.50
2019-03-24T13:57:35.452Z,16.50
2019-03-24T14:00:04.689Z,17.30
2019-03-24T14:02:32.364Z,16.40
2019-03-24T14:04:59.879Z,18.73
2019-03-24T14:07:28.657Z,16.50
2019-03-24T14:09:56.754Z,15.83
2019-03-24T14:12:24.082Z,16.43
2019-03-24T14:14:54.676Z,15.50
2019-03-24T14:17:22.887Z,18.07
2019-03-24T14:19:50.430Z,19.37
2019-03-24T14:22:18.196Z,19.00
2019-03-24T14:24:45.926Z,18.23
2019-03-24T14:27:13.741Z,17.07
2019-03-24T14:29:41.447Z,17.63
2019-03-24T14:32:08.889Z,16.57
2019-03-24T14:34:38.612Z,17.40
2019-03-24T14:37:06.592Z,16.67
2019-03-24T14:39:34.248Z,17.83
2019-03-24T14:42:02.099Z,16.87
2019-03-24T14:44:29.211Z,16.87
2019-03-24T14:46:57.178Z,18.33
2019-03-24T14:49:27.654Z,17.73
2019-03-24T14:51:54.841Z,17.37
2019-03-24T14:54:23.148Z,17.83
2019-03-24T14:56:50.630Z,19.03
2019-03-24T14:59:18.192Z,17.77
2019-03-24T15:01:47.705Z,19.53
2019-03-24T15:04:15.113Z,18.93
2019-03-24T15:06:45.937Z,19.20
2019-03-24T15:09:13.280Z,18.93
2019-03-24T15:11:40.792Z,19.17
2019-03-24T15:14:11.990Z,20.27
2019-03-24T15:16:39.111Z,18.97
2019-03-24T15:19:06.709Z,18.73
2019-03-24T15:21:35.005Z,20.23
2019-03-24T15:24:02.156Z,19.07
2019-03-24T15:26:30.447Z,17.87
2019-03-24T15:29:02.176Z,17.17
2019-03-24T15:31:29.280Z,17.40
2019-03-24T15:33:58.046Z,18.17
2019-03-24T15:36:25.277Z,18.97
2019-03-24T15:38:52.390Z,17.33
2019-03-24T15:41:19.959Z,17.70
2019-03-24T15:43:47.132Z,17.93
2019-03-24T15:46:14.445Z,17.60
2019-03-24T15:48:41.925Z,17.47
2019-03-24T15:51:16.711Z,17.57
2019-03-24T15:53:42.326Z,18.43
2019-03-24T15:56:09.442Z,18.63
2019-03-24T15:58:40.182Z,18.87
2019-03-24T16:01:07.628Z,17.33
2019-03-24T16:03:35.104Z,19.33
2019-03-24T16:06:03.445Z,18.80
2019-03-24T16:08:30.909Z,18.43
2019-03-24T16:10:58.093Z,19.07
2019-03-24T16:13:25.668Z,19.27
2019-03-24T16:15:53.997Z,20.27
2019-03-24T16:18:21.343Z,18.37
2019-03-24T16:20:48.447Z,20.23
2019-03-24T16:23:17.859Z,20.27
2019-03-24T16:25:50.519Z,20.63
2019-03-24T16:28:17.687Z,21.70
2019-03-24T16:30:45.506Z,22.00
2019-03-24T16:33:13.010Z,21.23
2019-03-24T16:35:40.146Z,23.20
2019-03-24T16:38:07.941Z,22.13
2019-03-24T16:40:35.738Z,22.43
2019-03-24T16:43:05.775Z,21.30
2019-03-24T16:45:33.486Z,23.80
2019-03-24T16:48:01.883Z,22.47
2019-03-24T16:50:29.643Z,21.43
2019-03-24T16:52:58.407Z,21.23
2019-03-24T16:55:26.997Z,21.57
2019-03-24T16:57:55.856Z,21.27
2019-03-24T17:00:26.325Z,20.83
2019-03-24T17:02:55.032Z,21.20
2019-03-24T17:05:24.678Z,20.40
2019-03-24T17:07:54.227Z,21.87
2019-03-24T17:10:22.139Z,21.83
2019-03-24T17:12:52.305Z,22.07
2019-03-24T17:15:22.349Z,22.60
2019-03-24T17:17:49.830Z,21.90
2019-03-24T17:20:17.783Z,22.60
2019-03-24T17:22:45.654Z,21.43
2019-03-24T17:25:17.578Z,21.17
2019-03-24T17:27:53.248Z,22.23
2019-03-24T17:30:20.523Z,23.40
2019-03-24T17:32:59.489Z,21.90
2019-03-24T17:35:28.592Z,25.53
2019-03-24T17:37:58.408Z,23.80
2019-03-24T17:40:26.217Z,24.07
2019-03-24T17:42:54.346Z,23.90
2019-03-24T17:45:22.232Z,23.40
2019-03-24T17:48:05.095Z,23.33
2019-03-24T17:50:41.406Z,22.60
2019-03-24T17:53:10.857Z,24.40
2019-03-24T17:55:38.322Z,24.73
2019-03-24T17:58:10.466Z,23.07
2019-03-24T18:00:43.733Z,25.03
2019-03-24T18:03:11.492Z,23.67
2019-03-24T18:05:43.769Z,26.80
2019-03-24T18:08:12.145Z,22.17
2019-03-24T18:10:39.582Z,22.70
2019-03-24T18:13:07.090Z,23.70
2019-03-24T18:15:36.524Z,23.37
2019-03-24T18:18:14.215Z,23.10
2019-03-24T18:20:46.704Z,22.93
2019-03-24T18:23:22.424Z,25.07
2019-03-24T18:25:55.463Z,23.90
2019-03-24T18:28:24.684Z,21.80
2019-03-24T18:30:53.403Z,21.63
2019-03-24T18:33:21.670Z,22.80
2019-03-24T18:35:54.254Z,23.30
2019-03-24T18:38:29.465Z,23.17
2019-03-24T18:41:25.896Z,20.80
2019-03-24T18:43:54.983Z,21.93
2019-03-24T18:46:26.525Z,22.13
2019-03-24T18:48:58.549Z,20.77
2019-03-24T18:51:32.690Z,22.57
2019-03-24T18:54:02.934Z,22.63
2019-03-24T18:56:30.646Z,24.13
2019-03-24T18:58:58.396Z,23.40
2019-03-24T19:01:26.133Z,22.93
2019-03-24T19:03:58.520Z,21.53
2019-03-24T19:06:28.773Z,22.67
2019-03-24T19:09:08.029Z,22.93
2019-03-24T19:11:39.565Z,23.17
2019-03-24T19:14:09.825Z,23.77
2019-03-24T19:16:38.027Z,21.43
2019-03-24T19:19:05.623Z,24.53
2019-03-24T19:21:32.925Z,22.73
2019-03-24T19:24:01.029Z,24.30
2019-03-24T19:26:28.312Z,23.43
2019-03-24T19:28:57.406Z,23.17
2019-03-24T19:31:25.036Z,21.67
2019-03-24T19:33:53.022Z,21.53
2019-03-24T19:36:20.862Z,23.87
2019-03-24T19:39:09.264Z,22.47
2019-03-24T19:41:42.257Z,20.60
2019-03-24T19:44:18.324Z,21.30
2019-03-24T19:46:50.823Z,21.23
2019-03-24T19:49:18.173Z,21.63
2019-03-24T19:51:48.358Z,20.57
2019-03-24T19:54:16.996Z,22.53
2019-03-24T19:56:47.402Z,22.63
2019-03-24T19:59:17.351Z,21.20
2019-03-24T20:01:47.400Z,20.57
2019-03-24T20:04:17.091Z,20.80
2019-03-24T20:06:47.097Z,20.30
2019-03-24T20:09:17.349Z,21.93
2019-03-24T20:11:52.065Z,19.47
2019-03-24T20:14:23.989Z,20.20
2019-03-24T20:17:01.404Z,19.83
2019-03-24T20:19:28.622Z,20.17
2019-03-24T20:21:55.976Z,21.23
2019-03-24T20:24:23.311Z,22.10
2019-03-24T20:26:56.407Z,21.20
2019-03-24T20:29:25.673Z,21.33
2019-03-24T20:31:55.703Z,22.73
2019-03-24T20:34:24.890Z,22.73
2019-03-24T20:36:54.586Z,24.57
2019-03-24T20:39:26.659Z,26.43
2019-03-24T20:41:56.222Z,23.40
2019-03-24T20:44:25.872Z,24.10
2019-03-24T20:46:53.036Z,25.97
2019-03-24T20:49:25.629Z,25.30
2019-03-24T20:52:01.813Z,24.77
2019-03-24T20:54:29.240Z,26.33
2019-03-24T20:56:57.815Z,24.20
2019-03-24T20:59:30.846Z,24.13
2019-03-24T21:02:04.702Z,25.37
2019-03-24T21:04:35.016Z,23.73
2019-03-24T21:07:02.894Z,23.13
2019-03-24T21:09:30.465Z,23.27
2019-03-24T21:11:59.633Z,23.53
2019-03-24T21:14:27.134Z,22.30
2019-03-24T21:16:56.879Z,22.67
2019-03-24T21:19:24.079Z,21.97
2019-03-24T21:21:57.392Z,23.33
2019-03-24T21:24:25.787Z,21.70
2019-03-24T21:26:52.922Z,22.60
2019-03-24T21:29:20.090Z,23.10
2019-03-24T21:31:47.284Z,23.80
2019-03-24T21:34:27.849Z,21.50
2019-03-24T21:36:54.930Z,23.07
2019-03-24T21:39:22.544Z,19.63
2019-03-24T21:41:50.801Z,21.23
2019-03-24T21:44:17.941Z,20.93
2019-03-24T21:46:46.138Z,20.67
2019-03-24T21:49:13.228Z,19.13
2019-03-24T21:51:40.466Z,19.73
2019-03-24T21:54:07.619Z,18.57
2019-03-24T21:56:34.738Z,18.07
2019-03-24T21:59:03.383Z,18.93
2019-03-24T22:01:30.436Z,17.77
2019-03-24T22:03:57.689Z,16.67
2019-03-24T22:06:27.320Z,16.47
2019-03-24T22:08:54.414Z,15.63
2019-03-24T22:11:21.500Z,13.83
2019-03-24T22:13:48.839Z,13.97
2019-03-24T22:16:15.949Z,11.90
2019-03-24T22:18:43.048Z,13.67
2019-03-24T22:21:11.430Z,11.97
2019-03-24T22:23:39.651Z,11.50
2019-03-24T22:26:06.699Z,11.90
2019-03-24T22:28:33.898Z,10.43
2019-03-24T22:31:00.977Z,10.20
2019-03-24T22:33:28.039Z,11.43
2019-03-24T22:35:55.405Z,10.80
2019-03-24T22:38:25.015Z,10.63
2019-03-24T22:40:52.012Z,9.93
2019-03-24T22:43:19.097Z,9.53
2019-03-24T22:45:46.174Z,10.23
2019-03-24T22:48:14.458Z,9.70
2019-03-24T22:50:41.553Z,9.33
2019-03-24T22:53:08.573Z,10.67
2019-03-24T22:55:35.795Z,9.93
2019-03-24T22:58:03.156Z,10.00
2019-03-24T23:00:50.044Z,9.60
2019-03-24T23:03:19.492Z,9.20
2019-03-24T23:05:46.681Z,10.53
2019-03-24T23:08:13.740Z,9.80
2019-03-24T23:10:47.415Z,10.53
2019-03-24T23:13:14.463Z,9.90
2019-03-24T23:15:41.671Z,9.13
2019-03-24T23:18:08.773Z,8.97
2019-03-24T23:20:36.083Z,9.40
2019-03-24T23:23:03.549Z,10.07
2019-03-24T23:25:30.613Z,9.43
2019-03-24T23:28:00.014Z,9.10
2019-03-24T23:30:27.126Z,9.80
2019-03-24T23:32:56.197Z,7.77
2019-03-24T23:35:26.820Z,8.70
2019-03-24T23:37:56.397Z,7.50
2019-03-24T23:40:26.039Z,8.57
2019-03-24T23:42:56.162Z,8.77
2019-03-24T23:45:32.545Z,7.33
2019-03-24T23:48:02.124Z,7.73
2019-03-24T23:50:29.470Z,6.77
2019-03-24T23:52:59.675Z,7.77
2019-03-24T23:55:26.910Z,6.60
2019-03-24T23:57:56.259Z,6.00
